Akiachak, Alaska
Current Conditions -  °F | °C
As of 3:56 PM on Saturday 22 Nov 2014 (Local Time) from PFKW Reporting Station
Few Clouds Few Clouds  
Wind Chill:   Ceiling: Unl
Heat Index: 20°   Visibility: 10mi
Dew Point: 12°   Wind: 9mph
Humidity: 71%   Direction: 30°NNE
Pressure: 29.11"   Gusts: NA
Location:  60.91°N, 161.44°W
Report Text: PFKW 230056Z AUTO 03008KT 10SM FEW110 M07/M11 A2911 RMK AO2 SLP857 T10671111 FZRANO $
Loading
Personal Weather Stations






























Interactive Weather Map New forecast layout! Learn more

10-Day Weather Forecast

Advertisements
Track Severe Weather on mobile